createdAt,value
2018-06-05T00:02:30.587Z,10.60
2018-06-05T00:05:04.052Z,12.88
2018-06-05T00:07:37.420Z,11.45
2018-06-05T00:10:10.810Z,8.95
2018-06-05T00:12:44.189Z,11.22
2018-06-05T00:15:17.588Z,11.03
2018-06-05T00:17:51.165Z,12.55
2018-06-05T00:20:24.564Z,11.43
2018-06-05T00:22:57.929Z,10.68
2018-06-05T00:25:31.302Z,11.20
2018-06-05T00:28:04.747Z,9.88
2018-06-05T00:30:38.120Z,11.20
2018-06-05T00:33:11.481Z,10.30
2018-06-05T00:35:44.985Z,9.93
2018-06-05T00:38:18.987Z,10.03
2018-06-05T00:40:52.375Z,9.88
2018-06-05T00:43:25.745Z,10.50
2018-06-05T00:45:59.132Z,9.53
2018-06-05T00:48:32.505Z,9.88
2018-06-05T00:51:17.069Z,9.30
2018-06-05T00:53:51.036Z,10.68
2018-06-05T00:56:24.425Z,9.95
2018-06-05T00:58:57.867Z,9.98
2018-06-05T01:01:31.247Z,11.28
2018-06-05T01:04:04.648Z,10.43
2018-06-05T01:06:38.031Z,8.95
2018-06-05T01:09:11.699Z,10.58
2018-06-05T01:11:45.114Z,11.12
2018-06-05T01:14:19.071Z,11.10
2018-06-05T01:16:52.461Z,9.88
2018-06-05T01:19:25.824Z,10.68
2018-06-05T01:21:59.195Z,10.35
2018-06-05T01:24:32.595Z,9.68
2018-06-05T01:27:06.041Z,9.93
2018-06-05T01:29:39.591Z,10.00
2018-06-05T01:32:12.972Z,10.45
2018-06-05T01:34:46.328Z,9.83
2018-06-05T01:37:20.651Z,9.85
2018-06-05T01:39:54.091Z,9.98
2018-06-05T01:42:27.481Z,11.75
2018-06-05T01:45:00.875Z,12.23
2018-06-05T01:47:34.228Z,10.65
2018-06-05T01:50:07.598Z,10.70
2018-06-05T01:52:40.986Z,13.55
2018-06-05T01:55:14.374Z,12.13
2018-06-05T01:57:49.414Z,12.10
2018-06-05T02:00:22.794Z,12.80
2018-06-05T02:02:56.192Z,11.45
2018-06-05T02:05:29.571Z,11.63
2018-06-05T02:08:02.939Z,12.35
2018-06-05T02:10:36.316Z,11.38
2018-06-05T02:13:09.721Z,12.88
2018-06-05T02:15:43.155Z,12.35
2018-06-05T02:18:16.520Z,12.28
2018-06-05T02:20:50.615Z,11.88
2018-06-05T02:23:24.063Z,12.55
2018-06-05T02:25:57.467Z,12.60
2018-06-05T02:28:30.857Z,11.03
2018-06-05T02:31:04.245Z,11.00
2018-06-05T02:33:37.611Z,10.20
2018-06-05T02:36:10.991Z,11.48
2018-06-05T02:38:44.359Z,11.30
2018-06-05T02:41:18.006Z,12.37
2018-06-05T02:43:51.378Z,13.25
2018-06-05T02:46:24.780Z,12.10
2018-06-05T02:48:58.145Z,13.85
2018-06-05T02:51:31.538Z,13.58
2018-06-05T02:54:04.909Z,12.93
2018-06-05T02:56:38.309Z,11.80
2018-06-05T02:59:11.675Z,14.45
2018-06-05T03:01:45.120Z,13.10
2018-06-05T03:04:19.259Z,13.05
2018-06-05T03:06:52.695Z,13.50
2018-06-05T03:09:26.061Z,11.60
2018-06-05T03:11:59.483Z,12.23
2018-06-05T03:14:32.856Z,11.97
2018-06-05T03:17:06.236Z,12.15
2018-06-05T03:19:39.619Z,12.53
2018-06-05T03:22:13.017Z,13.30
2018-06-05T03:24:46.393Z,12.45
2018-06-05T03:27:20.284Z,12.70
2018-06-05T03:29:53.658Z,13.60
2018-06-05T03:32:27.043Z,12.10
2018-06-05T03:35:00.424Z,13.35
2018-06-05T03:37:33.803Z,13.88
2018-06-05T03:40:07.188Z,13.58
2018-06-05T03:42:40.582Z,15.85
2018-06-05T03:45:13.954Z,14.63
2018-06-05T03:47:47.392Z,12.05
2018-06-05T03:50:21.528Z,11.65
2018-06-05T03:52:54.921Z,10.68
2018-06-05T03:55:28.322Z,11.50
2018-06-05T03:58:01.701Z,15.75
2018-06-05T04:00:35.078Z,12.15
2018-06-05T04:03:08.471Z,10.68
2018-06-05T04:05:41.840Z,11.28
2018-06-05T04:08:15.239Z,11.28
2018-06-05T04:10:49.235Z,9.05
2018-06-05T04:13:22.649Z,8.80
2018-06-05T04:15:56.002Z,9.30
2018-06-05T04:18:29.381Z,8.80
2018-06-05T04:21:02.739Z,10.78
2018-06-05T04:23:36.121Z,9.18
2018-06-05T04:26:09.489Z,9.25
2018-06-05T04:28:42.873Z,8.88
2018-06-05T04:31:16.243Z,9.90
2018-06-05T04:33:49.925Z,9.63
2018-06-05T04:36:23.289Z,10.13
2018-06-05T04:38:56.679Z,8.95
2018-06-05T04:41:30.061Z,11.60
2018-06-05T04:44:03.456Z,9.18
2018-06-05T04:46:36.831Z,7.22
2018-06-05T04:49:10.220Z,7.17
2018-06-05T04:51:43.717Z,10.58
2018-06-05T04:54:17.126Z,9.90
2018-06-05T04:56:51.485Z,8.88
2018-06-05T04:59:24.887Z,8.70
2018-06-05T05:01:58.274Z,10.30
2018-06-05T05:04:31.630Z,7.60
2018-06-05T05:07:05.059Z,10.30
2018-06-05T05:09:38.422Z,7.95
2018-06-05T05:12:11.831Z,11.73
2018-06-05T05:14:45.222Z,7.80
2018-06-05T05:17:19.032Z,11.88
2018-06-05T05:19:52.694Z,7.35
2018-06-05T05:22:26.079Z,7.90
2018-06-05T05:24:59.459Z,7.35
2018-06-05T05:27:32.875Z,11.12
2018-06-05T05:30:06.281Z,8.28
2018-06-05T05:32:39.671Z,10.08
2018-06-05T05:35:13.055Z,9.40
2018-06-05T05:37:46.488Z,10.55
2018-06-05T05:40:20.499Z,6.03
2018-06-05T05:42:53.897Z,6.03
2018-06-05T05:45:27.273Z,11.22
2018-06-05T05:48:00.661Z,6.22
2018-06-05T05:50:34.020Z,8.25
2018-06-05T05:53:07.414Z,11.25
2018-06-05T05:55:40.789Z,6.55
2018-06-05T05:58:14.218Z,6.87
2018-06-05T06:00:47.622Z,9.03
2018-06-05T06:03:21.623Z,11.18
2018-06-05T06:05:55.018Z,12.65
2018-06-05T06:08:28.411Z,11.95
2018-06-05T06:11:01.780Z,8.93
2018-06-05T06:13:35.349Z,11.10
2018-06-05T06:16:08.745Z,10.03
2018-06-05T06:18:42.128Z,17.62
2018-06-05T06:21:15.500Z,12.50
2018-06-05T06:23:49.099Z,9.28
2018-06-05T06:26:22.538Z,9.15
2018-06-05T06:28:55.952Z,11.80
2018-06-05T06:31:29.336Z,11.50
2018-06-05T06:34:02.729Z,11.22
2018-06-05T06:36:36.103Z,12.33
2018-06-05T06:39:10.510Z,12.37
2018-06-05T06:41:43.894Z,12.50
2018-06-05T06:44:17.408Z,9.63
2018-06-05T06:46:51.252Z,14.25
2018-06-05T06:49:24.650Z,7.83
2018-06-05T06:51:58.037Z,9.10
2018-06-05T06:54:31.436Z,10.60
2018-06-05T06:57:04.817Z,7.22
2018-06-05T06:59:38.204Z,10.15
2018-06-05T07:02:11.569Z,13.18
2018-06-05T07:04:44.977Z,9.60
2018-06-05T07:07:19.053Z,9.18
2018-06-05T07:09:52.446Z,12.37
2018-06-05T07:12:25.829Z,9.18
2018-06-05T07:14:59.215Z,10.90
2018-06-05T07:17:32.616Z,9.75
2018-06-05T07:20:06.020Z,13.32
2018-06-05T07:22:39.384Z,10.08
2018-06-05T07:25:12.759Z,12.23
2018-06-05T07:27:46.195Z,12.00
2018-06-05T07:30:19.908Z,6.72
2018-06-05T07:32:53.275Z,8.23
2018-06-05T07:35:26.691Z,5.92
2018-06-05T07:38:00.076Z,13.60
2018-06-05T07:40:33.494Z,7.05
2018-06-05T07:43:06.893Z,16.02
2018-06-05T07:45:40.297Z,9.55
2018-06-05T07:48:13.678Z,8.65
2018-06-05T07:50:47.128Z,9.65
2018-06-05T07:53:21.225Z,6.70
2018-06-05T07:55:54.626Z,13.00
2018-06-05T07:58:27.985Z,6.80
2018-06-05T08:01:01.410Z,10.50
2018-06-05T08:03:34.777Z,8.03
2018-06-05T08:06:08.176Z,7.45
2018-06-05T08:08:42.044Z,8.53
2018-06-05T08:11:15.435Z,9.38
2018-06-05T08:13:50.554Z,10.32
2018-06-05T08:16:23.916Z,8.88
2018-06-05T08:18:57.320Z,10.48
2018-06-05T08:21:30.704Z,9.68
2018-06-05T08:24:04.082Z,9.60
2018-06-05T08:26:48.998Z,10.30
2018-06-05T08:29:22.492Z,12.05
2018-06-05T08:31:55.866Z,7.92
2018-06-05T08:34:29.275Z,10.28
2018-06-05T08:37:02.645Z,11.20
2018-06-05T08:39:36.060Z,6.90
2018-06-05T08:42:09.428Z,9.80
2018-06-05T08:44:42.856Z,9.80
2018-06-05T08:47:16.260Z,8.50
2018-06-05T08:49:50.502Z,13.25
2018-06-05T08:52:23.869Z,10.45
2018-06-05T08:54:57.277Z,10.23
2018-06-05T08:57:30.625Z,9.40
2018-06-05T09:00:04.103Z,9.58
2018-06-05T09:02:37.480Z,9.55
2018-06-05T09:05:10.900Z,7.60
2018-06-05T09:07:44.275Z,8.33
2018-06-05T09:10:17.672Z,14.87
2018-06-05T09:12:51.654Z,9.10
2018-06-05T09:15:25.039Z,8.78
2018-06-05T09:17:58.408Z,8.50
2018-06-05T09:20:31.815Z,7.55
2018-06-05T09:23:05.174Z,6.42
2018-06-05T09:25:38.570Z,8.78
2018-06-05T09:28:11.942Z,9.48
2018-06-05T09:30:45.371Z,7.20
2018-06-05T09:33:20.452Z,9.15
2018-06-05T09:35:53.834Z,7.33
2018-06-05T09:38:27.207Z,7.45
2018-06-05T09:41:00.596Z,8.53
2018-06-05T09:43:36.760Z,7.83
2018-06-05T09:46:10.142Z,6.97
2018-06-05T09:48:43.519Z,8.45
2018-06-05T09:51:16.942Z,8.75
2018-06-05T09:53:50.625Z,8.58
2018-06-05T09:56:24.016Z,7.20
2018-06-05T09:58:57.398Z,10.25
2018-06-05T10:01:30.790Z,8.50
2018-06-05T10:04:04.192Z,6.80
2018-06-05T10:06:37.592Z,11.22
2018-06-05T10:09:10.969Z,7.55
2018-06-05T10:11:44.415Z,6.67
2018-06-05T10:14:18.089Z,11.22
2018-06-05T10:16:51.514Z,9.05
2018-06-05T10:19:24.933Z,11.03
2018-06-05T10:21:58.388Z,7.10
2018-06-05T10:24:31.753Z,6.60
2018-06-05T10:27:05.206Z,6.67
2018-06-05T10:29:38.626Z,7.15
2018-06-05T10:32:12.020Z,10.05
2018-06-05T10:34:45.441Z,8.15
2018-06-05T10:37:19.477Z,9.20
2018-06-05T10:39:52.847Z,8.23
2018-06-05T10:42:26.242Z,6.85
2018-06-05T10:44:59.648Z,10.00
2018-06-05T10:47:33.044Z,9.85
2018-06-05T10:50:06.422Z,9.13
2018-06-05T10:52:39.815Z,8.63
2018-06-05T10:55:13.180Z,10.75
2018-06-05T10:57:46.604Z,7.65
2018-06-05T11:00:20.680Z,7.62
2018-06-05T11:02:54.053Z,8.28
2018-06-05T11:05:27.647Z,8.98
2018-06-05T11:08:01.019Z,8.25
2018-06-05T11:10:34.424Z,7.28
2018-06-05T11:13:07.827Z,9.50
2018-06-05T11:15:41.199Z,7.20
2018-06-05T11:18:14.573Z,7.80
2018-06-05T11:20:47.990Z,9.40
2018-06-05T11:23:21.387Z,7.00
2018-06-05T11:25:54.808Z,9.08
2018-06-05T11:28:28.168Z,6.30
2018-06-05T11:31:01.599Z,8.25
2018-06-05T11:33:35.004Z,8.25
2018-06-05T11:36:08.406Z,6.60
2018-06-05T11:38:41.799Z,9.78
2018-06-05T11:41:21.540Z,9.05
2018-06-05T11:43:54.898Z,6.40
2018-06-05T11:46:28.268Z,6.72
2018-06-05T11:49:01.644Z,9.48
2018-06-05T11:51:35.042Z,13.43
2018-06-05T11:54:08.454Z,6.62
2018-06-05T11:56:41.828Z,7.67
2018-06-05T11:59:15.232Z,6.50
2018-06-05T12:01:49.414Z,7.05
2018-06-05T12:04:22.997Z,8.65
2018-06-05T12:06:56.457Z,6.72
2018-06-05T12:09:29.831Z,6.53
2018-06-05T12:12:03.283Z,7.15
2018-06-05T12:14:36.657Z,6.80
2018-06-05T12:17:10.067Z,6.30
2018-06-05T12:19:43.461Z,6.35
2018-06-05T12:22:16.837Z,5.87
2018-06-05T12:24:51.060Z,6.00
2018-06-05T12:27:24.439Z,6.58
2018-06-05T12:29:57.801Z,6.42
2018-06-05T12:32:31.189Z,6.75
2018-06-05T12:35:04.540Z,6.62
2018-06-05T12:37:37.935Z,6.05
2018-06-05T12:40:11.404Z,7.53
2018-06-05T12:42:44.816Z,6.08
2018-06-05T12:45:18.447Z,6.53
2018-06-05T12:47:51.855Z,11.05
2018-06-05T12:50:25.280Z,8.00
2018-06-05T12:52:58.683Z,7.78
2018-06-05T12:55:32.130Z,7.72
2018-06-05T12:58:05.737Z,9.45
2018-06-05T13:00:39.140Z,9.73
2018-06-05T13:03:12.524Z,8.63
2018-06-05T13:05:45.904Z,10.25
2018-06-05T13:08:20.077Z,10.63
2018-06-05T13:10:53.485Z,9.35
2018-06-05T13:13:26.900Z,14.00
2018-06-05T13:16:00.290Z,10.95
2018-06-05T13:18:33.675Z,11.22
2018-06-05T13:21:07.172Z,8.98
2018-06-05T13:23:40.584Z,9.80
2018-06-05T13:26:13.944Z,13.72
2018-06-05T13:28:47.398Z,11.20
2018-06-05T13:31:21.451Z,14.10
2018-06-05T13:33:54.836Z,11.28
2018-06-05T13:36:28.207Z,10.30
2018-06-05T13:39:01.598Z,11.15
2018-06-05T13:41:41.624Z,11.80
2018-06-05T13:44:15.053Z,13.05
2018-06-05T13:46:48.961Z,12.15
2018-06-05T13:49:22.340Z,14.35
2018-06-05T13:51:55.731Z,8.35
2018-06-05T13:54:29.114Z,6.75
2018-06-05T13:57:02.492Z,10.55
2018-06-05T13:59:35.883Z,9.50
2018-06-05T14:02:09.257Z,7.55
2018-06-05T14:04:42.705Z,7.10
2018-06-05T14:07:16.076Z,9.18
2018-06-05T14:09:49.821Z,8.83
2018-06-05T14:12:23.225Z,7.17
2018-06-05T14:14:56.672Z,7.17
2018-06-05T14:17:30.075Z,9.55
2018-06-05T14:20:03.500Z,7.25
2018-06-05T14:22:36.911Z,7.00
2018-06-05T14:25:10.274Z,8.93
2018-06-05T14:27:43.668Z,8.08
2018-06-05T14:30:17.063Z,7.50
2018-06-05T14:32:51.048Z,10.43
2018-06-05T14:35:24.437Z,7.10
2018-06-05T14:37:57.824Z,10.72
2018-06-05T14:40:31.179Z,6.62
2018-06-05T14:43:04.558Z,9.55
2018-06-05T14:45:37.948Z,9.70
2018-06-05T14:48:11.347Z,8.55
2018-06-05T14:50:44.717Z,12.43
2018-06-05T14:53:18.131Z,8.05
2018-06-05T14:55:51.551Z,5.90
2018-06-05T14:58:24.932Z,6.45
2018-06-05T15:00:58.334Z,5.42
2018-06-05T15:03:31.718Z,6.45
2018-06-05T15:06:05.105Z,10.60
2018-06-05T15:08:38.500Z,7.20
2018-06-05T15:11:11.870Z,4.87
2018-06-05T15:13:45.282Z,5.55
2018-06-05T15:16:20.311Z,7.25
2018-06-05T15:18:53.729Z,4.40
2018-06-05T15:21:27.090Z,5.70
2018-06-05T15:24:00.466Z,6.47
2018-06-05T15:26:33.938Z,7.10
2018-06-05T15:29:07.301Z,5.05
2018-06-05T15:31:40.690Z,5.12
2018-06-05T15:34:14.137Z,5.65
2018-06-05T15:36:47.468Z,5.47
2018-06-05T15:39:21.980Z,4.95
2018-06-05T15:41:55.352Z,3.60
2018-06-05T15:44:28.738Z,4.60
2018-06-05T15:47:02.103Z,5.58
2018-06-05T15:49:35.507Z,7.25
2018-06-05T15:52:08.899Z,10.43
2018-06-05T15:54:42.299Z,5.28
2018-06-05T15:57:15.677Z,3.95
2018-06-05T15:59:49.099Z,5.97
2018-06-05T16:02:22.457Z,7.10
2018-06-05T16:04:55.863Z,5.50
2018-06-05T16:07:29.521Z,4.15
2018-06-05T16:10:02.999Z,3.80
2018-06-05T16:12:36.379Z,3.02
2018-06-05T16:15:09.972Z,4.00
2018-06-05T16:17:43.355Z,3.67
2018-06-05T16:20:16.833Z,4.72
2018-06-05T16:22:50.479Z,4.60
2018-06-05T16:25:23.869Z,4.95
2018-06-05T16:27:57.227Z,3.80
2018-06-05T16:30:30.663Z,3.50
2018-06-05T16:39:00.099Z,3.87
2018-06-05T16:41:33.738Z,5.50
2018-06-05T16:44:07.130Z,4.62
2018-06-05T16:46:40.437Z,3.75
2018-06-05T16:49:14.308Z,4.67
2018-06-05T16:51:47.619Z,5.53
2018-06-05T16:54:20.986Z,5.83
2018-06-05T16:56:54.648Z,5.17
2018-06-05T16:59:27.962Z,4.15
2018-06-05T17:02:01.268Z,4.55
2018-06-05T17:04:34.617Z,3.80
2018-06-05T17:07:08.048Z,6.83
2018-06-05T17:09:41.413Z,5.08
2018-06-05T17:12:14.811Z,3.40
2018-06-05T17:14:48.117Z,6.35
2018-06-05T17:17:21.456Z,9.73
2018-06-05T17:19:54.815Z,7.08
2018-06-05T17:22:28.110Z,6.55
2018-06-05T17:25:01.525Z,5.28
2018-06-05T17:27:34.930Z,5.60
2018-06-05T17:30:08.300Z,7.80
2018-06-05T17:32:41.766Z,6.15
2018-06-05T17:35:15.129Z,9.75
2018-06-05T17:37:48.467Z,5.12
2018-06-05T17:40:22.660Z,4.28
2018-06-05T17:42:55.921Z,5.75
2018-06-05T17:45:29.497Z,6.20
2018-06-05T17:48:02.830Z,5.58
2018-06-05T17:50:36.177Z,10.48
2018-06-05T17:53:09.704Z,8.23
2018-06-05T17:55:43.077Z,6.20
2018-06-05T17:58:16.477Z,10.05
2018-06-05T18:00:49.880Z,9.38
2018-06-05T18:03:23.957Z,10.15
2018-06-05T18:05:57.328Z,5.42
2018-06-05T18:08:30.791Z,6.25
2018-06-05T18:11:04.969Z,6.35
2018-06-05T18:13:38.441Z,7.15
2018-06-05T18:16:11.892Z,6.12
2018-06-05T18:18:45.323Z,6.53
2018-06-05T18:21:18.662Z,7.55
2018-06-05T18:23:52.442Z,7.83
2018-06-05T18:26:25.763Z,5.62
2018-06-05T18:28:59.363Z,9.18
2018-06-05T18:31:32.749Z,8.18
2018-06-05T18:34:06.108Z,7.08
2018-06-05T18:36:39.502Z,6.60
2018-06-05T18:39:12.864Z,6.83
2018-06-05T18:41:46.248Z,8.08
2018-06-05T18:44:19.592Z,8.50
2018-06-05T18:46:53.020Z,7.45
2018-06-05T18:49:26.341Z,8.60
2018-06-05T18:51:59.691Z,10.85
2018-06-05T18:54:33.056Z,11.53
2018-06-05T18:57:06.401Z,7.33
2018-06-05T18:59:39.713Z,7.25
2018-06-05T19:02:13.040Z,8.03
2018-06-05T19:04:46.339Z,7.03
2018-06-05T19:07:20.145Z,9.33
2018-06-05T19:09:54.074Z,6.70
2018-06-05T19:12:27.564Z,7.08
2018-06-05T19:15:00.934Z,7.20
2018-06-05T19:17:34.349Z,6.03
2018-06-05T19:20:07.788Z,9.40
2018-06-05T19:22:41.149Z,8.35
2018-06-05T19:25:14.464Z,6.80
2018-06-05T19:27:47.857Z,6.45
2018-06-05T19:30:21.157Z,6.47
2018-06-05T19:32:54.560Z,7.60
2018-06-05T19:35:27.918Z,6.62
2018-06-05T19:38:01.945Z,12.03
2018-06-05T19:40:35.312Z,7.20
2018-06-05T19:43:08.670Z,8.43
2018-06-05T19:45:42.721Z,8.93
2018-06-05T19:48:16.089Z,8.45
2018-06-05T19:50:49.425Z,9.10
2018-06-05T19:53:23.041Z,6.55
2018-06-05T19:55:56.740Z,6.72
2018-06-05T19:58:30.349Z,6.72
2018-06-05T20:01:03.650Z,7.75
2018-06-05T20:03:37.174Z,9.40
2018-06-05T20:06:10.642Z,6.72
2018-06-05T20:08:44.005Z,6.83
2018-06-05T20:11:17.480Z,7.35
2018-06-05T20:13:50.987Z,7.15
2018-06-05T20:16:25.189Z,7.17
2018-06-05T20:18:58.659Z,6.78
2018-06-05T20:21:32.203Z,6.78
2018-06-05T20:24:05.652Z,6.67
2018-06-05T20:26:39.041Z,6.78
2018-06-05T20:29:12.412Z,8.38
2018-06-05T20:31:45.793Z,7.87
2018-06-05T20:34:19.182Z,8.55
2018-06-05T20:36:52.602Z,10.18
2018-06-05T20:39:25.903Z,9.50
2018-06-05T20:42:00.212Z,8.95
2018-06-05T20:44:33.561Z,7.53
2018-06-05T20:47:07.016Z,7.35
2018-06-05T20:49:40.356Z,8.13
2018-06-05T20:52:13.876Z,8.70
2018-06-05T20:54:47.292Z,9.00
2018-06-05T20:57:20.710Z,9.35
2018-06-05T20:59:54.633Z,11.53
2018-06-05T21:02:28.027Z,7.85
2018-06-05T21:05:01.506Z,8.13
2018-06-05T21:07:34.882Z,8.15
2018-06-05T21:10:08.225Z,10.10
2018-06-05T21:12:41.620Z,8.43
2018-06-05T21:15:15.091Z,9.08
2018-06-05T21:17:48.469Z,9.55
2018-06-05T21:20:22.824Z,8.78
2018-06-05T21:22:56.140Z,8.10
2018-06-05T21:25:29.988Z,12.75
2018-06-05T21:28:03.350Z,9.63
2018-06-05T21:30:36.686Z,7.97
2018-06-05T21:33:10.100Z,11.15
2018-06-05T21:35:43.732Z,12.20
2018-06-05T21:38:17.096Z,9.50
2018-06-05T21:40:50.470Z,9.00
2018-06-05T21:43:24.233Z,11.50
2018-06-05T21:45:57.599Z,10.40
2018-06-05T21:48:31.337Z,9.13
2018-06-05T21:51:04.748Z,9.53
2018-06-05T21:53:38.119Z,9.05
2018-06-05T21:56:11.445Z,10.48
2018-06-05T21:58:44.875Z,10.18
2018-06-05T22:01:18.213Z,9.10
2018-06-05T22:03:51.637Z,9.43
2018-06-05T22:06:24.944Z,9.58
2018-06-05T22:08:58.371Z,9.30
2018-06-05T22:11:31.797Z,7.62
2018-06-05T22:14:05.176Z,9.30
2018-06-05T22:16:38.514Z,9.45
2018-06-05T22:19:11.962Z,8.43
2018-06-05T22:21:45.329Z,7.70
2018-06-05T22:24:18.702Z,8.70
2018-06-05T22:26:52.589Z,9.03
2018-06-05T22:29:25.904Z,7.03
2018-06-05T22:31:59.559Z,6.12
2018-06-05T22:34:32.927Z,5.60
2018-06-05T22:37:06.465Z,5.95
2018-06-05T22:39:40.048Z,5.50
2018-06-05T22:42:13.729Z,8.78
2018-06-05T22:44:47.308Z,4.67
2018-06-05T22:47:20.845Z,4.35
2018-06-05T22:49:55.173Z,5.35
2018-06-05T22:52:29.515Z,5.50
2018-06-05T22:55:03.173Z,5.70
2018-06-05T22:57:36.702Z,4.55
2018-06-05T23:00:10.799Z,5.80
2018-06-05T23:02:44.334Z,3.67
2018-06-05T23:05:17.861Z,3.67
2018-06-05T23:07:52.492Z,3.80
2018-06-05T23:10:25.950Z,3.25
2018-06-05T23:12:59.489Z,4.05
2018-06-05T23:15:32.863Z,3.83
2018-06-05T23:18:06.255Z,3.05
2018-06-05T23:20:39.653Z,5.08
2018-06-05T23:23:13.213Z,4.70
2018-06-05T23:25:46.552Z,4.47
2018-06-05T23:28:19.950Z,3.70
2018-06-05T23:30:53.768Z,2.80
2018-06-05T23:33:27.283Z,2.95
2018-06-05T23:36:00.616Z,2.85
2018-06-05T23:38:33.971Z,4.70
2018-06-05T23:41:07.337Z,3.20
2018-06-05T23:43:40.720Z,2.70
2018-06-05T23:46:14.209Z,2.70
2018-06-05T23:48:47.565Z,3.95
2018-06-05T23:51:20.997Z,2.98
2018-06-05T23:53:55.000Z,2.50
2018-06-05T23:56:28.339Z,2.87
2018-06-05T23:59:01.790Z,2.95
